createdAt,value
2024-04-25T00:01:24.840Z,49.84
2024-04-25T00:03:54.823Z,50.37
2024-04-25T00:06:27.763Z,50.34
2024-04-25T00:08:57.848Z,49.92
2024-04-25T00:11:28.106Z,49.90
2024-04-25T00:13:58.223Z,50.06
2024-04-25T00:16:28.274Z,49.74
2024-04-25T00:18:59.054Z,49.63
2024-04-25T00:21:31.698Z,49.88
2024-04-25T00:24:01.691Z,49.64
2024-04-25T00:26:31.666Z,49.28
2024-04-25T00:29:03.220Z,49.40
2024-04-25T00:31:34.709Z,49.45
2024-04-25T00:34:04.843Z,49.60
2024-04-25T00:36:37.442Z,49.76
2024-04-25T00:39:07.519Z,49.84
2024-04-25T00:41:37.587Z,49.98
2024-04-25T00:44:07.726Z,50.06
2024-04-25T00:46:37.693Z,49.91
2024-04-25T00:49:07.900Z,50.05
2024-04-25T00:51:41.801Z,50.11
2024-04-25T00:54:11.936Z,50.05
2024-04-25T00:56:44.715Z,50.12
2024-04-25T00:59:16.888Z,50.10
2024-04-25T01:01:47.660Z,50.03
2024-04-25T01:04:19.349Z,49.98
2024-04-25T01:06:54.368Z,49.64
2024-04-25T01:09:24.364Z,49.60
2024-04-25T01:11:54.412Z,49.83
2024-04-25T01:14:24.639Z,49.94
2024-04-25T01:16:54.686Z,49.57
2024-04-25T01:19:24.667Z,49.91
2024-04-25T01:21:57.519Z,50.14
2024-04-25T01:24:31.211Z,50.04
2024-04-25T01:27:04.882Z,50.00
2024-04-25T01:29:36.445Z,49.66
2024-04-25T01:32:08.287Z,49.61
2024-04-25T01:34:38.935Z,49.69
2024-04-25T01:37:09.040Z,49.62
2024-04-25T01:39:39.090Z,49.60
2024-04-25T01:42:11.808Z,49.85
2024-04-25T01:44:41.850Z,49.71
2024-04-25T01:47:12.342Z,49.69
2024-04-25T01:49:42.364Z,49.60
2024-04-25T01:52:12.341Z,49.37
2024-04-25T01:54:42.279Z,49.28
2024-04-25T01:57:14.958Z,49.13
2024-04-25T01:59:45.128Z,49.35
2024-04-25T02:02:15.310Z,49.13
2024-04-25T02:04:45.261Z,48.90
2024-04-25T02:07:15.242Z,48.70
2024-04-25T02:09:45.239Z,48.87
2024-04-25T02:12:15.277Z,48.74
2024-04-25T02:14:45.301Z,48.81
2024-04-25T02:17:15.393Z,48.87
2024-04-25T02:19:45.539Z,48.99
2024-04-25T02:22:31.131Z,48.73
2024-04-25T02:25:21.685Z,48.72
2024-04-25T02:27:54.329Z,48.55
2024-04-25T02:30:24.398Z,48.52
2024-04-25T02:32:54.615Z,48.57
2024-04-25T02:35:22.007Z,48.64
2024-04-25T02:37:52.056Z,48.26
2024-04-25T02:40:22.096Z,48.31
2024-04-25T02:42:54.724Z,48.03
2024-04-25T02:45:21.975Z,48.10
2024-04-25T02:47:52.005Z,48.18
2024-04-25T02:50:19.569Z,48.15
2024-04-25T02:52:49.639Z,48.17
2024-04-25T02:55:16.989Z,48.38
2024-04-25T02:57:46.992Z,48.25
2024-04-25T03:00:17.296Z,48.13
2024-04-25T03:02:48.086Z,47.98
2024-04-25T03:05:15.463Z,48.17
2024-04-25T03:07:45.454Z,47.95
2024-04-25T03:10:12.688Z,48.03
2024-04-25T03:12:42.770Z,47.80
2024-04-25T03:15:10.680Z,47.89
2024-04-25T03:17:43.432Z,47.67
2024-04-25T03:20:11.126Z,47.64
2024-04-25T03:22:41.085Z,47.42
2024-04-25T03:25:09.738Z,47.63
2024-04-25T03:27:39.907Z,47.49
2024-04-25T03:30:08.600Z,47.46
2024-04-25T03:32:38.847Z,47.21
2024-04-25T03:35:11.912Z,47.57
2024-04-25T03:37:41.866Z,47.38
2024-04-25T03:40:12.644Z,47.58
2024-04-25T03:42:42.511Z,47.46
2024-04-25T03:45:12.508Z,47.37
2024-04-25T03:47:42.536Z,47.21
2024-04-25T03:50:15.431Z,47.30
2024-04-25T03:52:45.437Z,47.35
2024-04-25T03:55:15.627Z,47.16
2024-04-25T03:57:45.662Z,47.01
2024-04-25T04:00:16.156Z,47.20
2024-04-25T04:02:46.286Z,47.13
2024-04-25T04:05:19.725Z,47.52
2024-04-25T04:07:50.185Z,47.94
2024-04-25T04:10:20.221Z,48.23
2024-04-25T04:12:50.248Z,48.17
2024-04-25T04:15:21.262Z,47.96
2024-04-25T04:17:51.765Z,48.07
2024-04-25T04:20:24.486Z,47.88
2024-04-25T04:22:54.458Z,47.86
2024-04-25T04:25:24.522Z,48.10
2024-04-25T04:27:54.587Z,48.32
2024-04-25T04:30:24.783Z,48.41
2024-04-25T04:32:54.888Z,48.28
2024-04-25T04:35:27.739Z,48.43
2024-04-25T04:37:58.613Z,48.32
2024-04-25T04:40:28.685Z,48.33
2024-04-25T04:42:58.820Z,48.43
2024-04-25T04:45:29.228Z,48.58
2024-04-25T04:47:59.384Z,48.64
2024-04-25T04:50:32.230Z,48.62
2024-04-25T04:53:02.359Z,48.45
2024-04-25T04:55:32.335Z,48.38
2024-04-25T04:58:02.278Z,48.21
2024-04-25T05:00:33.812Z,48.16
2024-04-25T05:03:03.985Z,47.85
2024-04-25T05:05:36.933Z,47.70
2024-04-25T05:08:07.481Z,47.55
2024-04-25T05:10:37.506Z,47.80
2024-04-25T05:13:08.022Z,47.69
2024-04-25T05:15:38.047Z,47.67
2024-04-25T05:18:08.652Z,47.47
2024-04-25T05:20:41.379Z,47.59
2024-04-25T05:23:11.988Z,47.31
2024-04-25T05:25:42.101Z,47.44
2024-04-25T05:28:12.138Z,47.29
2024-04-25T05:30:42.211Z,47.29
2024-04-25T05:33:12.480Z,47.05
2024-04-25T05:35:46.217Z,47.14
2024-04-25T05:38:16.278Z,47.24
2024-04-25T05:40:46.409Z,46.95
2024-04-25T05:43:16.327Z,46.96
2024-04-25T05:45:46.380Z,47.10
2024-04-25T05:48:16.648Z,47.33
2024-04-25T05:50:49.495Z,47.26
2024-04-25T05:53:19.582Z,47.27
2024-04-25T05:55:49.663Z,47.35
2024-04-25T05:58:19.676Z,47.37
2024-04-25T06:00:49.755Z,47.09
2024-04-25T06:03:19.867Z,46.89
2024-04-25T06:05:52.986Z,47.00
2024-04-25T06:08:23.014Z,46.75
2024-04-25T06:10:53.021Z,46.56
2024-04-25T06:13:23.115Z,46.84
2024-04-25T06:15:53.167Z,46.66
2024-04-25T06:18:23.246Z,46.92
2024-04-25T06:20:56.198Z,46.19
2024-04-25T06:23:26.289Z,46.18
2024-04-25T06:25:56.359Z,45.75
2024-04-25T06:28:27.637Z,45.56
2024-04-25T06:31:01.349Z,45.36
2024-04-25T06:33:31.710Z,44.93
2024-04-25T06:36:04.535Z,44.99
2024-04-25T06:38:34.576Z,44.78
2024-04-25T06:41:04.687Z,44.71
2024-04-25T06:43:36.009Z,44.43
2024-04-25T06:46:08.947Z,44.20
2024-04-25T06:48:39.205Z,43.26
2024-04-25T06:51:12.083Z,42.62
2024-04-25T06:53:42.169Z,41.35
2024-04-25T06:56:12.201Z,39.50
2024-04-25T06:58:43.032Z,38.84
2024-04-25T07:01:13.259Z,38.32
2024-04-25T07:03:43.447Z,37.28
2024-04-25T07:06:16.429Z,35.06
2024-04-25T07:08:46.492Z,32.91
2024-04-25T07:11:16.835Z,31.18
2024-04-25T07:13:47.260Z,29.36
2024-04-25T07:16:17.288Z,28.49
2024-04-25T07:18:47.420Z,27.04
2024-04-25T07:21:20.230Z,26.03
2024-04-25T07:23:50.324Z,24.95
2024-04-25T07:26:20.345Z,23.96
2024-04-25T07:28:50.489Z,23.01
2024-04-25T07:31:20.417Z,22.77
2024-04-25T07:33:50.578Z,22.08
2024-04-25T07:36:25.216Z,21.01
2024-04-25T07:38:55.543Z,20.55
2024-04-25T07:41:27.200Z,19.93
2024-04-25T07:43:57.299Z,19.00
2024-04-25T07:46:27.907Z,18.43
2024-04-25T07:48:58.423Z,17.77
2024-04-25T07:51:31.329Z,16.76
2024-04-25T07:54:01.348Z,15.95
2024-04-25T07:56:31.374Z,14.99
2024-04-25T07:59:01.612Z,15.17
2024-04-25T08:01:31.631Z,14.78
2024-04-25T08:04:02.160Z,13.47
2024-04-25T08:06:36.046Z,13.55
2024-04-25T08:09:07.353Z,12.93
2024-04-25T08:11:37.707Z,12.90
2024-04-25T08:14:07.873Z,12.58
2024-04-25T08:16:37.941Z,12.56
2024-04-25T08:19:09.430Z,11.66
2024-04-25T08:21:42.176Z,10.93
2024-04-25T08:24:14.458Z,10.94
2024-04-25T08:26:44.424Z,10.62
2024-04-25T08:29:14.478Z,9.89
2024-04-25T08:31:44.569Z,10.01
2024-04-25T08:34:15.346Z,9.49
2024-04-25T08:36:48.062Z,9.56
2024-04-25T08:39:18.107Z,8.86
2024-04-25T08:41:49.844Z,9.59
2024-04-25T08:44:20.108Z,9.15
2024-04-25T08:46:51.750Z,8.85
2024-04-25T08:49:24.207Z,8.94
2024-04-25T08:51:58.001Z,10.40
2024-04-25T08:54:28.498Z,11.08
2024-04-25T08:56:58.612Z,11.89
2024-04-25T08:59:28.600Z,12.78
2024-04-25T09:02:00.144Z,13.09
2024-04-25T09:04:31.694Z,13.43
2024-04-25T09:07:11.748Z,13.53
2024-04-25T09:09:42.347Z,13.31
2024-04-25T09:12:12.492Z,11.94
2024-04-25T09:14:42.735Z,11.17
2024-04-25T09:17:17.607Z,10.23
2024-04-25T09:19:48.075Z,8.94
2024-04-25T09:22:21.037Z,7.75
2024-04-25T09:24:51.162Z,7.96
2024-04-25T09:27:21.247Z,7.98
2024-04-25T09:29:54.682Z,7.40
2024-04-25T09:32:25.072Z,7.08
2024-04-25T09:34:55.198Z,6.81
2024-04-25T09:37:28.572Z,6.41
2024-04-25T09:40:03.690Z,6.54
2024-04-25T09:42:38.053Z,5.49
2024-04-25T09:45:11.017Z,5.79
2024-04-25T09:47:43.870Z,5.44
2024-04-25T09:50:20.180Z,4.99
2024-04-25T09:53:02.201Z,4.83
2024-04-25T09:55:39.527Z,4.59
2024-04-25T09:58:15.413Z,4.57
2024-04-25T10:00:47.206Z,4.38
2024-04-25T10:03:19.864Z,4.20
2024-04-25T10:05:50.447Z,4.58
2024-04-25T10:08:23.839Z,4.13
2024-04-25T10:10:54.429Z,4.48
2024-04-25T10:13:28.460Z,3.49
2024-04-25T10:16:00.648Z,3.41
2024-04-25T10:18:31.207Z,4.07
2024-04-25T10:21:05.192Z,3.84
2024-04-25T10:23:38.142Z,4.34
2024-04-25T10:26:08.588Z,4.59
2024-04-25T10:28:38.703Z,4.41
2024-04-25T10:31:08.779Z,4.35
2024-04-25T10:33:39.157Z,4.80
2024-04-25T10:36:10.213Z,4.98
2024-04-25T10:38:49.519Z,5.89
2024-04-25T10:41:34.970Z,7.31
2024-04-25T10:44:05.085Z,8.59
2024-04-25T10:46:37.007Z,9.71
2024-04-25T10:49:08.994Z,10.59
2024-04-25T10:51:42.137Z,11.76
2024-04-25T10:54:15.210Z,12.24
2024-04-25T10:56:45.433Z,13.04
2024-04-25T10:59:15.522Z,14.12
2024-04-25T11:01:45.590Z,14.15
2024-04-25T11:04:15.571Z,14.71
2024-04-25T11:06:45.733Z,15.03
2024-04-25T11:09:20.188Z,15.87
2024-04-25T11:11:51.075Z,16.07
2024-04-25T11:14:21.385Z,16.57
2024-04-25T11:16:51.496Z,17.13
2024-04-25T11:19:26.657Z,17.42
2024-04-25T11:21:57.801Z,17.52
2024-04-25T11:24:33.451Z,17.62
2024-04-25T11:27:04.482Z,17.35
2024-04-25T11:29:35.115Z,17.59
2024-04-25T11:32:06.355Z,18.10
2024-04-25T11:34:38.041Z,17.92
2024-04-25T11:37:09.587Z,17.88
2024-04-25T11:39:42.383Z,18.49
2024-04-25T11:42:13.339Z,17.84
2024-04-25T11:44:43.611Z,18.02
2024-04-25T11:47:14.277Z,18.53
2024-04-25T11:49:44.516Z,18.88
2024-04-25T11:52:15.735Z,19.03
2024-04-25T11:54:48.344Z,18.93
2024-04-25T11:57:19.490Z,18.99
2024-04-25T11:59:49.574Z,18.92
2024-04-25T12:02:19.817Z,19.30
2024-04-25T12:04:49.840Z,19.59
2024-04-25T12:07:19.910Z,19.74
2024-04-25T12:09:52.739Z,19.54
2024-04-25T12:12:22.803Z,19.74
2024-04-25T12:14:53.036Z,20.07
2024-04-25T12:17:23.112Z,19.46
2024-04-25T12:19:53.137Z,19.71
2024-04-25T12:22:23.294Z,19.26
2024-04-25T12:24:56.113Z,19.62
2024-04-25T12:27:26.123Z,19.78
2024-04-25T12:29:56.164Z,20.01
2024-04-25T12:32:26.402Z,20.31
2024-04-25T12:34:56.398Z,20.31
2024-04-25T12:37:26.423Z,19.67
2024-04-25T12:39:59.049Z,19.97
2024-04-25T12:42:29.175Z,20.10
2024-04-25T12:44:59.201Z,20.06
2024-04-25T12:47:29.455Z,20.02
2024-04-25T12:49:59.766Z,19.75
2024-04-25T12:52:31.504Z,20.14
2024-04-25T12:55:04.321Z,19.83
2024-04-25T12:57:34.405Z,19.75
2024-04-25T13:00:04.460Z,19.85
2024-04-25T13:02:34.578Z,20.10
2024-04-25T13:05:04.700Z,20.11
2024-04-25T13:07:34.587Z,20.43
2024-04-25T13:10:08.077Z,20.07
2024-04-25T13:12:38.918Z,20.34
2024-04-25T13:15:09.899Z,20.57
2024-04-25T13:17:40.066Z,20.82
2024-04-25T13:20:11.451Z,20.86
2024-04-25T13:22:41.413Z,20.43
2024-04-25T13:25:14.137Z,20.50
2024-04-25T13:27:44.147Z,20.06
2024-04-25T13:30:14.677Z,20.15
2024-04-25T13:32:46.826Z,20.23
2024-04-25T13:35:17.803Z,20.26
2024-04-25T13:37:47.831Z,20.39
2024-04-25T13:40:20.656Z,20.52
2024-04-25T13:42:50.731Z,20.73
2024-04-25T13:45:20.658Z,20.98
2024-04-25T13:47:50.897Z,21.02
2024-04-25T13:50:21.219Z,20.58
2024-04-25T13:52:51.268Z,20.75
2024-04-25T13:55:24.751Z,20.21
2024-04-25T13:57:55.194Z,20.15
2024-04-25T14:00:25.378Z,20.06
2024-04-25T14:02:55.538Z,20.36
2024-04-25T14:05:25.637Z,20.40
2024-04-25T14:07:56.242Z,20.39
2024-04-25T14:10:28.948Z,19.70
2024-04-25T14:12:58.985Z,19.80
2024-04-25T14:15:29.117Z,19.99
2024-04-25T14:17:56.779Z,20.28
2024-04-25T14:20:27.005Z,20.68
2024-04-25T14:22:57.000Z,20.10
2024-04-25T14:25:45.244Z,19.71
2024-04-25T14:28:31.283Z,20.24
2024-04-25T14:31:02.073Z,20.29
2024-04-25T14:33:32.198Z,20.70
2024-04-25T14:36:02.544Z,20.88
2024-04-25T14:38:32.938Z,20.45
2024-04-25T14:41:09.223Z,20.10
2024-04-25T14:43:40.037Z,20.02
2024-04-25T14:46:11.944Z,20.45
2024-04-25T14:48:42.478Z,20.34
2024-04-25T14:51:12.740Z,20.06
2024-04-25T14:53:42.838Z,19.84
2024-04-25T14:56:15.637Z,19.63
2024-04-25T14:58:45.595Z,19.51
2024-04-25T15:01:21.475Z,19.52
2024-04-25T15:03:51.675Z,19.70
2024-04-25T15:06:21.763Z,20.06
2024-04-25T15:08:51.748Z,19.44
2024-04-25T15:11:26.847Z,19.73
2024-04-25T15:13:56.919Z,19.56
2024-04-25T15:16:28.023Z,18.97
2024-04-25T15:18:57.979Z,19.16
2024-04-25T15:21:30.035Z,18.76
2024-04-25T15:24:02.029Z,18.53
2024-04-25T15:26:34.741Z,18.39
2024-04-25T15:29:07.740Z,18.83
2024-04-25T15:31:39.365Z,19.13
2024-04-25T15:34:10.177Z,18.80
2024-04-25T15:36:41.007Z,18.71
2024-04-25T15:39:10.994Z,18.84
2024-04-25T15:41:44.205Z,18.86
2024-04-25T15:44:14.350Z,18.76
2024-04-25T15:46:44.461Z,18.63
2024-04-25T15:49:16.544Z,18.88
2024-04-25T15:51:46.895Z,18.56
2024-04-25T15:54:16.918Z,18.67
2024-04-25T15:56:50.973Z,18.50
2024-04-25T15:59:21.449Z,18.72
2024-04-25T16:01:51.787Z,18.90
2024-04-25T16:04:22.723Z,18.70
2024-04-25T16:06:52.915Z,19.06
2024-04-25T16:09:22.894Z,18.95
2024-04-25T16:11:57.535Z,19.27
2024-04-25T16:14:27.826Z,20.13
2024-04-25T16:16:57.988Z,20.55
2024-04-25T16:19:30.389Z,20.45
2024-04-25T16:22:02.558Z,21.16
2024-04-25T16:24:33.537Z,21.40
2024-04-25T16:27:07.645Z,21.49
2024-04-25T16:29:37.931Z,21.79
2024-04-25T16:32:08.162Z,21.53
2024-04-25T16:34:38.310Z,21.50
2024-04-25T16:37:08.617Z,22.13
2024-04-25T16:39:39.238Z,21.93
2024-04-25T16:42:12.381Z,22.30
2024-04-25T16:44:43.536Z,22.33
2024-04-25T16:47:13.536Z,22.47
2024-04-25T16:49:43.549Z,22.67
2024-04-25T16:52:13.592Z,22.92
2024-04-25T16:54:43.738Z,22.91
2024-04-25T16:57:16.357Z,22.72
2024-04-25T16:59:47.565Z,22.75
2024-04-25T17:02:18.074Z,22.71
2024-04-25T17:04:50.539Z,23.06
2024-04-25T17:07:20.631Z,23.51
2024-04-25T17:09:51.017Z,23.75
2024-04-25T17:12:23.885Z,24.04
2024-04-25T17:14:54.029Z,24.29
2024-04-25T17:17:24.174Z,24.72
2024-04-25T17:19:54.143Z,25.02
2024-04-25T17:22:24.229Z,25.49
2024-04-25T17:24:54.189Z,25.43
2024-04-25T17:27:27.493Z,25.82
2024-04-25T17:29:57.454Z,26.14
2024-04-25T17:32:27.644Z,26.48
2024-04-25T17:35:00.132Z,26.26
2024-04-25T17:37:30.623Z,26.46
2024-04-25T17:40:00.766Z,26.67
2024-04-25T17:42:33.429Z,26.59
2024-04-25T17:45:05.772Z,26.98
2024-04-25T17:47:38.023Z,27.20
2024-04-25T17:50:09.534Z,27.16
2024-04-25T17:52:39.704Z,27.41
2024-04-25T17:55:12.593Z,27.74
2024-04-25T17:57:46.047Z,27.43
2024-04-25T18:00:16.745Z,28.14
2024-04-25T18:02:49.792Z,28.22
2024-04-25T18:05:19.895Z,28.31
2024-04-25T18:07:50.026Z,28.43
2024-04-25T18:10:20.187Z,28.22
2024-04-25T18:12:53.073Z,28.26
2024-04-25T18:15:23.007Z,28.25
2024-04-25T18:17:53.008Z,28.34
2024-04-25T18:20:23.203Z,28.74
2024-04-25T18:22:53.407Z,28.69
2024-04-25T18:25:23.379Z,28.83
2024-04-25T18:27:56.159Z,28.90
2024-04-25T18:30:26.446Z,28.96
2024-04-25T18:32:56.562Z,28.73
2024-04-25T18:35:27.039Z,28.89
2024-04-25T18:38:02.354Z,28.79
2024-04-25T18:40:32.331Z,28.96
2024-04-25T18:43:05.183Z,29.10
2024-04-25T18:45:35.217Z,29.22
2024-04-25T18:48:05.249Z,29.11
2024-04-25T18:50:36.236Z,29.14
2024-04-25T18:53:07.735Z,29.07
2024-04-25T18:55:37.647Z,29.17
2024-04-25T18:58:10.317Z,29.31
2024-04-25T19:00:42.502Z,29.54
2024-04-25T19:03:12.536Z,29.42
2024-04-25T19:05:42.499Z,29.53
2024-04-25T19:08:12.741Z,29.31
2024-04-25T19:10:42.779Z,29.73
2024-04-25T19:13:18.048Z,29.82
2024-04-25T19:15:48.088Z,30.05
2024-04-25T19:18:18.972Z,29.99
2024-04-25T19:20:48.964Z,29.83
2024-04-25T19:23:19.062Z,30.03
2024-04-25T19:25:48.993Z,29.98
2024-04-25T19:28:22.305Z,29.98
2024-04-25T19:30:52.114Z,30.00
2024-04-25T19:33:23.697Z,29.85
2024-04-25T19:35:53.679Z,30.31
2024-04-25T19:38:23.696Z,30.25
2024-04-25T19:40:54.639Z,30.49
2024-04-25T19:43:27.341Z,30.59
2024-04-25T19:45:57.127Z,30.46
2024-04-25T19:48:27.905Z,30.49
2024-04-25T19:50:57.972Z,30.76
2024-04-25T19:53:27.862Z,30.66
2024-04-25T19:55:57.817Z,30.86
2024-04-25T19:58:30.820Z,30.86
2024-04-25T20:01:00.999Z,31.02
2024-04-25T20:03:31.352Z,31.14
2024-04-25T20:06:02.735Z,31.23
2024-04-25T20:08:32.886Z,31.32
2024-04-25T20:11:02.849Z,31.18
2024-04-25T20:13:35.667Z,31.14
2024-04-25T20:16:06.274Z,31.32
2024-04-25T20:18:48.353Z,31.28
2024-04-25T20:21:18.350Z,31.42
2024-04-25T20:23:48.540Z,31.33
2024-04-25T20:26:18.613Z,31.34
2024-04-25T20:28:51.231Z,31.52
2024-04-25T20:31:21.477Z,31.42
2024-04-25T20:33:51.562Z,31.57
2024-04-25T20:36:21.552Z,31.75
2024-04-25T20:38:52.139Z,31.87
2024-04-25T20:41:22.833Z,31.98
2024-04-25T20:43:55.518Z,32.03
2024-04-25T20:46:25.978Z,31.82
2024-04-25T20:48:57.623Z,31.92
2024-04-25T20:51:31.741Z,32.24
2024-04-25T20:54:02.389Z,32.16
2024-04-25T20:56:32.456Z,32.14
2024-04-25T20:59:05.488Z,32.29
2024-04-25T21:01:39.328Z,32.18
2024-04-25T21:04:09.642Z,32.09
2024-04-25T21:06:44.818Z,32.13
2024-04-25T21:09:18.571Z,32.29
2024-04-25T21:11:48.850Z,32.10
2024-04-25T21:14:21.754Z,32.29
2024-04-25T21:16:53.211Z,32.26
2024-04-25T21:19:23.980Z,32.43
2024-04-25T21:21:54.012Z,32.24
2024-04-25T21:24:24.004Z,32.19
2024-04-25T21:26:54.087Z,32.44
2024-04-25T21:29:26.763Z,32.37
2024-04-25T21:31:54.247Z,32.47
2024-04-25T21:34:24.371Z,32.61
2024-04-25T21:36:54.663Z,32.53
2024-04-25T21:39:24.801Z,32.70
2024-04-25T21:41:54.967Z,32.76
2024-04-25T21:44:27.765Z,32.79
2024-04-25T21:46:57.673Z,33.32
2024-04-25T21:49:27.860Z,33.21
2024-04-25T21:51:58.110Z,33.59
2024-04-25T21:54:28.114Z,33.76
2024-04-25T21:56:58.171Z,34.09
2024-04-25T21:59:31.023Z,34.41
2024-04-25T22:02:01.608Z,34.24
2024-04-25T22:04:31.651Z,34.69
2024-04-25T22:07:01.640Z,34.52
2024-04-25T22:09:31.646Z,34.16
2024-04-25T22:12:01.892Z,34.37
2024-04-25T22:14:34.664Z,34.56
2024-04-25T22:17:04.669Z,34.17
2024-04-25T22:19:34.720Z,34.81
2024-04-25T22:22:04.983Z,34.96
2024-04-25T22:24:34.956Z,35.61
2024-04-25T22:27:04.945Z,35.76
2024-04-25T22:29:37.615Z,36.15
2024-04-25T22:32:08.260Z,36.14
2024-04-25T22:34:38.267Z,36.50
2024-04-25T22:37:08.368Z,36.36
2024-04-25T22:39:38.355Z,36.85
2024-04-25T22:42:09.781Z,36.50
2024-04-25T22:44:42.483Z,36.86
2024-04-25T22:47:12.411Z,36.76
2024-04-25T22:49:42.364Z,36.84
2024-04-25T22:52:12.331Z,36.57
2024-04-25T22:54:42.327Z,36.57
2024-04-25T22:57:12.283Z,36.23
2024-04-25T22:59:44.994Z,36.08
2024-04-25T23:02:15.111Z,36.18
2024-04-25T23:04:45.144Z,36.24
2024-04-25T23:07:15.147Z,36.67
2024-04-25T23:09:46.503Z,36.88
2024-04-25T23:12:16.706Z,36.61
2024-04-25T23:14:50.021Z,36.79
2024-04-25T23:17:20.373Z,36.69
2024-04-25T23:19:50.355Z,36.65
2024-04-25T23:22:20.337Z,36.58
2024-04-25T23:24:50.338Z,36.60
2024-04-25T23:27:20.381Z,36.59
2024-04-25T23:29:53.218Z,36.46
2024-04-25T23:32:23.372Z,36.53
2024-04-25T23:34:53.332Z,36.77
2024-04-25T23:37:23.418Z,36.88
2024-04-25T23:39:53.391Z,37.01
2024-04-25T23:42:23.444Z,36.99
2024-04-25T23:44:56.251Z,37.44
2024-04-25T23:47:26.421Z,37.12
2024-04-25T23:49:56.491Z,37.56
2024-04-25T23:52:26.539Z,37.40
2024-04-25T23:54:56.467Z,37.07
2024-04-25T23:57:26.456Z,37.14
2024-04-25T23:59:59.215Z,37.17
